Time;durP1;ratioP1;P1;durP2;ratioP2;P2;SDS_P1;SDS_P2;PMS_P1;PMS_P2;Temp;Humidity;BMP_temperature;BMP_pressure;BME280_temperature;BME280_humidity;BME280_pressure;Samples;Min_cycle;Max_cycle;Signal;HPM_P1;HPM_P2
2022/06/18 00:01:33;;;;;;;9.10;4.40;;;18.40;94.90;;;;;;5035602;28;20833;-88
2022/06/18 00:04:13;;;;;;;9.43;3.80;;;18.40;95.10;;;;;;5007007;28;20424;-89
2022/06/18 00:07:02;;;;;;;4.73;3.93;;;18.30;95.10;;;;;;5020282;28;20482;-90
2022/06/18 00:09:45;;;;;;;7.17;3.60;;;18.30;95.10;;;;;;5020383;28;20490;-90
2022/06/18 00:15:06;;;;;;;4.93;4.20;;;18.20;95.50;;;;;;5038447;28;20426;-90
2022/06/18 00:17:32;;;;;;;5.57;4.00;;;18.20;96.00;;;;;;5006557;28;20451;-90
2022/06/18 00:20:41;;;;;;;7.37;4.37;;;18.20;95.60;;;;;;5019332;28;20437;-89
2022/06/18 00:23:25;;;;;;;6.50;4.10;;;18.20;95.40;;;;;;5019390;28;20303;-88
2022/06/18 00:25:53;;;;;;;7.10;4.07;;;18.10;95.20;;;;;;5034303;28;20438;-90
2022/06/18 00:28:33;;;;;;;6.00;3.53;;;18.10;95.50;;;;;;5019625;28;20415;-89
2022/06/18 00:31:43;;;;;;;6.20;4.30;;;18.10;95.90;;;;;;5016721;28;20480;-91
2022/06/18 00:34:12;;;;;;;5.33;3.80;;;18.00;96.00;;;;;;5008294;28;20423;-91
2022/06/18 00:36:45;;;;;;;5.73;3.70;;;18.00;96.20;;;;;;5019104;28;20480;-88
2022/06/18 00:39:24;;;;;;;7.17;3.80;;;18.00;96.30;;;;;;5019981;28;20431;-89
2022/06/18 00:41:53;;;;;;;4.67;3.53;;;17.90;96.30;;;;;;5009728;28;20428;-90
2022/06/18 00:44:32;;;;;;;5.37;3.60;;;17.90;96.50;;;;;;5002959;28;20427;-89
2022/06/18 00:47:04;;;;;;;5.70;3.30;;;17.80;96.60;;;;;;5016290;28;20657;-90
2022/06/18 00:49:52;;;;;;;7.83;3.50;;;17.80;96.60;;;;;;5019713;28;20462;-89
2022/06/18 00:52:53;;;;;;;4.47;3.40;;;17.80;96.60;;;;;;5035496;28;20431;-89
2022/06/18 00:56:15;;;;;;;11.90;3.60;;;17.70;96.80;;;;;;5012717;28;20926;-90
2022/06/18 00:59:04;;;;;;;5.90;3.27;;;17.70;97.00;;;;;;4987669;28;20444;-90
2022/06/18 01:01:44;;;;;;;5.10;3.30;;;17.70;97.30;;;;;;4972099;28;20433;-88
2022/06/18 01:04:36;;;;;;;5.70;3.23;;;17.70;97.30;;;;;;4971859;28;20421;-89
2022/06/18 01:07:29;;;;;;;3.60;2.93;;;17.60;97.30;;;;;;4989748;28;20514;-93
2022/06/18 01:09:55;;;;;;;6.47;3.00;;;17.50;97.30;;;;;;5019206;28;20512;-91
2022/06/18 01:12:51;;;;;;;4.63;3.07;;;17.50;97.30;;;;;;5019528;28;20482;-92
2022/06/18 01:15:53;;;;;;;6.13;3.00;;;17.50;97.30;;;;;;5007309;28;20427;-92
2022/06/18 01:18:54;;;;;;;4.30;3.20;;;17.40;97.30;;;;;;5014222;28;20921;-93
2022/06/18 01:22:22;;;;;;;6.70;3.07;;;17.40;97.30;;;;;;5017647;28;20784;-91
2022/06/18 01:25:11;;;;;;;4.07;2.83;;;17.40;97.30;;;;;;4943677;28;20480;-92
2022/06/18 01:27:43;;;;;;;3.40;2.67;;;17.40;97.30;;;;;;5009529;28;20458;-92
2022/06/18 01:30:21;;;;;;;4.03;3.10;;;17.40;97.30;;;;;;5019419;28;20415;-92
2022/06/18 01:32:54;;;;;;;5.47;3.40;;;17.40;97.30;;;;;;5018959;28;20977;-91
2022/06/18 01:35:24;;;;;;;4.40;2.50;;;17.30;97.30;;;;;;5019299;28;20411;-92
2022/06/18 01:37:52;;;;;;;3.97;2.97;;;17.30;97.30;;;;;;5007476;28;20469;-92
2022/06/18 01:44:24;;;;;;;4.50;3.00;;;17.20;97.30;;;;;;4956486;28;20465;-91
2022/06/18 01:46:54;;;;;;;5.37;2.93;;;17.20;97.30;;;;;;4994225;28;20464;-91
2022/06/18 01:49:44;;;;;;;4.87;2.80;;;17.10;97.30;;;;;;5005516;28;20458;-92
2022/06/18 01:52:24;;;;;;;3.07;2.97;;;17.10;97.30;;;;;;5031761;28;20436;-92
2022/06/18 01:57:54;;;;;;;4.60;2.90;;;17.00;97.30;;;;;;5014965;28;20430;-92
2022/06/18 02:00:25;;;;;;;3.90;3.10;;;17.00;97.30;;;;;;5032034;28;20906;-91
2022/06/18 02:02:54;;;;;;;4.60;2.70;;;17.00;97.30;;;;;;4998846;28;20435;-93
2022/06/18 02:05:23;;;;;;;6.03;3.63;;;16.90;97.30;;;;;;5017244;28;20435;-91
2022/06/18 02:07:53;;;;;;;4.83;2.77;;;16.90;97.30;;;;;;5018365;28;20454;-92
2022/06/18 02:14:14;;;;;;;5.40;3.57;;;16.90;97.30;;;;;;5023834;28;20427;-92
2022/06/18 02:16:54;;;;;;;6.47;3.13;;;16.80;97.30;;;;;;4983895;28;20473;-91
2022/06/18 02:19:22;;;;;;;4.33;2.43;;;16.80;97.30;;;;;;5018989;28;20430;-93
2022/06/18 02:22:12;;;;;;;6.20;2.40;;;16.80;97.30;;;;;;5017959;28;20426;-92
2022/06/18 02:24:45;;;;;;;5.73;2.40;;;16.80;97.30;;;;;;5012483;28;20774;-91
2022/06/18 02:27:24;;;;;;;4.33;2.40;;;16.70;97.30;;;;;;5018502;28;20438;-92
2022/06/18 02:29:54;;;;;;;5.60;3.00;;;16.70;97.30;;;;;;5005977;28;20494;-92
2022/06/18 02:32:34;;;;;;;5.90;2.90;;;16.70;97.30;;;;;;5018485;28;20585;-93
2022/06/18 02:35:23;;;;;;;4.03;2.57;;;16.70;97.30;;;;;;5018698;28;20414;-91
2022/06/18 02:37:54;;;;;;;13.93;3.00;;;16.70;97.30;;;;;;4998183;28;21107;-92
2022/06/18 02:40:25;;;;;;;5.87;2.87;;;16.70;97.30;;;;;;5011162;28;20446;-91
2022/06/18 02:43:01;;;;;;;3.73;2.50;;;16.60;97.30;;;;;;5011115;28;20448;-91
2022/06/18 02:45:45;;;;;;;3.40;2.70;;;16.60;97.30;;;;;;5012796;28;20422;-91
2022/06/18 02:48:13;;;;;;;3.97;2.60;;;16.60;97.30;;;;;;5018103;28;20534;-91
2022/06/18 02:50:45;;;;;;;5.27;2.60;;;16.50;97.30;;;;;;5017820;28;20502;-90
2022/06/18 02:53:14;;;;;;;3.80;3.20;;;16.50;97.30;;;;;;5017476;28;20447;-91
2022/06/18 02:55:54;;;;;;;3.43;2.30;;;16.50;97.30;;;;;;5012276;28;20546;-91
2022/06/18 02:58:43;;;;;;;8.13;2.47;;;16.40;97.30;;;;;;5016533;28;20451;-91
2022/06/18 03:01:34;;;;;;;9.40;2.57;;;16.40;97.30;;;;;;5016097;28;20451;-92
2022/06/18 03:04:03;;;;;;;4.00;2.50;;;16.30;97.30;;;;;;5019642;28;20458;-91
2022/06/18 03:06:35;;;;;;;5.73;2.40;;;16.30;97.30;;;;;;5021894;28;20454;-91
2022/06/18 03:09:03;;;;;;;5.27;2.80;;;16.30;97.30;;;;;;5021425;28;20415;-91
2022/06/18 03:14:34;;;;;;;4.07;3.00;;;16.20;97.30;;;;;;5039298;28;20694;-91
2022/06/18 03:17:03;;;;;;;4.40;2.67;;;16.20;97.30;;;;;;5031814;28;20427;-91
2022/06/18 03:19:52;;;;;;;5.17;2.70;;;16.10;97.30;;;;;;5013183;28;20415;-91
2022/06/18 03:25:45;;;;;;;4.63;2.80;;;16.10;97.30;;;;;;5028053;28;20585;-91
2022/06/18 03:28:14;;;;;;;2.90;2.47;;;16.20;97.30;;;;;;5019338;28;20858;-90
2022/06/18 03:30:43;;;;;;;5.63;2.40;;;16.20;97.30;;;;;;5017784;28;20427;-91
2022/06/18 03:33:12;;;;;;;4.40;2.93;;;16.20;97.30;;;;;;5018366;28;20449;-90
2022/06/18 03:35:45;;;;;;;4.37;2.70;;;16.20;97.30;;;;;;5020640;28;20956;-91
2022/06/18 03:38:15;;;;;;;8.13;2.80;;;16.20;97.30;;;;;;5020480;28;20416;-91
2022/06/18 03:40:53;;;;;;;2.90;2.60;;;16.20;97.30;;;;;;5033554;28;20426;-91
2022/06/18 03:43:24;;;;;;;8.80;2.43;;;16.20;97.30;;;;;;5030350;28;20432;-90
2022/06/18 03:46:21;;;;;;;3.30;2.20;;;16.20;97.30;;;;;;5019732;28;20474;-91
2022/06/18 03:49:06;;;;;;;5.87;2.73;;;16.20;97.30;;;;;;5034366;28;20435;-91
2022/06/18 03:51:51;;;;;;;2.70;2.40;;;16.20;97.30;;;;;;5013416;28;20443;-91
2022/06/18 03:54:24;;;;;;;4.07;2.47;;;16.20;97.30;;;;;;5004860;28;20470;-92
2022/06/18 03:56:52;;;;;;;3.23;2.30;;;16.30;97.30;;;;;;5037693;28;20969;-92
2022/06/18 03:59:22;;;;;;;3.87;2.47;;;16.30;97.30;;;;;;5011671;28;20421;-92
2022/06/18 04:01:55;;;;;;;2.87;2.50;;;16.30;97.30;;;;;;5015684;28;20483;-91
2022/06/18 04:04:23;;;;;;;5.10;3.17;;;16.30;97.30;;;;;;5019786;28;20517;-91
2022/06/18 04:06:56;;;;;;;4.90;2.33;;;16.30;97.30;;;;;;5034679;28;20505;-91
2022/06/18 04:09:24;;;;;;;2.70;2.50;;;16.40;97.30;;;;;;5016727;28;20428;-92
2022/06/18 04:11:52;;;;;;;5.17;2.43;;;16.40;97.30;;;;;;5012933;28;20424;-91
2022/06/18 04:14:23;;;;;;;3.60;2.00;;;16.40;97.30;;;;;;5012495;28;20415;-91
2022/06/18 04:16:58;;;;;;;3.20;2.40;;;16.40;97.30;;;;;;5017873;28;20461;-90
2022/06/18 04:19:24;;;;;;;4.50;2.70;;;16.50;97.30;;;;;;5017679;28;20425;-92
2022/06/18 04:21:52;;;;;;;4.10;2.63;;;16.50;97.30;;;;;;5010602;28;20424;-89
2022/06/18 04:24:25;;;;;;;5.80;2.70;;;16.50;97.30;;;;;;5018255;28;20182;-92
2022/06/18 04:26:54;;;;;;;3.80;2.63;;;16.50;97.30;;;;;;5015811;28;20982;-92
2022/06/18 04:29:23;;;;;;;4.43;2.40;;;16.50;97.30;;;;;;5034449;28;20424;-91
2022/06/18 04:32:15;;;;;;;4.43;2.60;;;16.60;97.30;;;;;;5009622;28;20511;-91
2022/06/18 04:34:44;;;;;;;2.80;2.40;;;16.60;97.30;;;;;;5007221;28;20476;-91
2022/06/18 04:37:14;;;;;;;3.97;2.30;;;16.70;97.30;;;;;;5019187;28;20419;-91
2022/06/18 04:39:45;;;;;;;4.77;2.07;;;16.80;97.30;;;;;;5034869;28;20428;-91
2022/06/18 04:42:14;;;;;;;2.43;2.10;;;16.80;97.30;;;;;;5005975;28;20436;-91
2022/06/18 04:44:43;;;;;;;4.00;2.17;;;16.90;97.30;;;;;;5018502;28;21018;-91
2022/06/18 04:47:43;;;;;;;;;;;;;;;;;;;;;
2022/06/18 04:50:24;;;;;;;3.53;2.13;;;17.20;96.40;;;;;;5035999;28;20534;-90
2022/06/18 04:52:56;;;;;;;2.50;2.00;;;17.30;95.70;;;;;;5010592;28;20993;-91
2022/06/18 04:55:26;;;;;;;4.70;2.10;;;17.40;94.50;;;;;;5018627;28;20411;-90
2022/06/18 04:58:05;;;;;;;2.30;2.07;;;17.60;94.10;;;;;;5019080;28;20418;-90
2022/06/18 05:07:34;;;;;;;2.97;2.40;;;18.10;92.60;;;;;;5015810;28;20558;-90
2022/06/18 05:10:14;;;;;;;2.90;2.17;;;18.20;92.10;;;;;;5015452;28;20416;-91
2022/06/18 05:12:46;;;;;;;6.53;2.20;;;18.30;91.40;;;;;;5017732;28;20530;-90
2022/06/18 05:15:14;;;;;;;4.73;2.20;;;18.50;91.00;;;;;;5018130;28;20419;-91
2022/06/18 05:17:45;;;;;;;2.33;2.17;;;18.60;90.90;;;;;;5017975;28;20427;-91
2022/06/18 05:20:45;;;;;;;3.20;2.00;;;18.70;90.50;;;;;;5014679;28;20489;-91
2022/06/18 05:23:14;;;;;;;3.43;2.13;;;18.80;90.40;;;;;;5007763;28;20459;-90
2022/06/18 05:26:05;;;;;;;4.60;2.40;;;18.90;90.50;;;;;;5000274;28;20432;-90
2022/06/18 05:28:45;;;;;;;5.33;2.10;;;19.00;89.80;;;;;;5001638;28;20423;-92
2022/06/18 05:31:13;;;;;;;5.53;2.03;;;19.10;89.60;;;;;;5013174;28;20416;-90
2022/06/18 05:34:17;;;;;;;;;;;;;;;;;;;;;
2022/06/18 05:36:43;;;;;;;2.50;1.80;;;19.40;87.70;;;;;;5025390;28;20422;-91
2022/06/18 05:39:36;;;;;;;5.30;2.17;;;19.60;87.20;;;;;;5017812;28;20439;-91
2022/06/18 05:42:04;;;;;;;2.60;1.90;;;19.70;87.00;;;;;;5000745;28;20661;-91
2022/06/18 05:44:36;;;;;;;4.60;1.80;;;19.80;86.20;;;;;;5008203;28;20991;-90
2022/06/18 05:47:36;;;;;;;3.40;2.20;;;20.00;86.80;;;;;;5008117;28;20551;-90
2022/06/18 05:50:16;;;;;;;7.20;2.00;;;20.10;86.30;;;;;;5009754;28;20462;-91
2022/06/18 05:52:45;;;;;;;2.50;1.90;;;20.20;86.50;;;;;;5017067;28;20430;-91
2022/06/18 05:55:14;;;;;;;7.90;3.90;;;20.30;85.60;;;;;;5018511;28;20408;-89
2022/06/18 05:57:56;;;;;;;8.07;2.10;;;20.40;85.00;;;;;;5005896;28;20423;-89
2022/06/18 06:04:26;;;;;;;2.37;2.20;;;20.60;84.40;;;;;;4935182;29;20949;-85
2022/06/18 06:06:55;;;;;;;3.63;1.93;;;20.80;84.10;;;;;;4953483;28;20470;-86
2022/06/18 06:16:36;;;;;;;2.40;2.23;;;21.10;83.50;;;;;;4947662;29;20443;-89
2022/06/18 06:19:46;;;;;;;2.53;2.07;;;21.30;83.00;;;;;;4962808;28;21268;-90
2022/06/18 06:22:24;;;;;;;4.60;2.10;;;21.40;83.00;;;;;;4957733;28;20446;-91
2022/06/18 06:24:56;;;;;;;4.20;1.90;;;21.50;82.50;;;;;;4963925;28;20429;-90
2022/06/18 06:27:24;;;;;;;2.30;2.00;;;21.70;81.80;;;;;;4994563;28;21017;-90
2022/06/18 06:29:55;;;;;;;2.77;1.90;;;21.80;81.60;;;;;;5016225;28;20427;-89
2022/06/18 06:32:23;;;;;;;3.73;1.70;;;21.90;81.80;;;;;;5010512;28;20447;-93
2022/06/18 06:34:48;;;;;;;4.63;2.00;;;22.00;81.70;;;;;;5004191;28;20474;-90
2022/06/18 06:37:14;;;;;;;2.43;2.30;;;22.10;81.50;;;;;;5013680;28;20428;-90
2022/06/18 06:39:42;;;;;;;2.17;2.00;;;22.20;81.90;;;;;;5009195;28;20261;-91
2022/06/18 06:42:08;;;;;;;1.90;1.90;;;22.30;81.60;;;;;;5017424;28;20215;-91
2022/06/18 06:44:34;;;;;;;3.90;2.00;;;22.40;81.80;;;;;;5020351;28;20461;-90
2022/06/18 06:47:02;;;;;;;3.37;1.90;;;22.50;81.40;;;;;;5020144;28;20459;-90
2022/06/18 06:49:32;;;;;;;5.47;2.07;;;22.70;80.70;;;;;;5019420;28;20235;-90
2022/06/18 06:52:06;;;;;;;2.40;2.20;;;22.80;81.20;;;;;;5019476;28;20443;-91
2022/06/18 06:58:03;;;;;;;8.00;2.33;;;23.00;80.10;;;;;;5028503;28;20426;-90
2022/06/18 07:00:56;;;;;;;3.40;1.77;;;23.20;80.70;;;;;;5019926;28;20422;-89
2022/06/18 07:06:16;;;;;;;3.70;2.13;;;23.40;81.10;;;;;;5019733;28;20981;-90
2022/06/18 07:08:43;;;;;;;3.00;1.60;;;23.60;79.70;;;;;;5020036;28;20913;-90
2022/06/18 07:11:25;;;;;;;4.00;2.20;;;23.80;78.70;;;;;;5019825;28;20427;-90
2022/06/18 07:13:53;;;;;;;2.00;1.73;;;23.90;78.10;;;;;;5008690;28;20443;-92
2022/06/18 07:16:34;;;;;;;1.90;1.90;;;24.10;77.30;;;;;;5019871;28;20438;-90
2022/06/18 07:19:02;;;;;;;3.43;1.93;;;24.40;76.50;;;;;;5019748;28;20434;-91
2022/06/18 07:21:35;;;;;;;3.47;2.00;;;24.50;77.00;;;;;;5019727;28;20465;-90
2022/06/18 07:24:04;;;;;;;3.83;2.10;;;24.60;77.70;;;;;;5020063;28;20416;-90
2022/06/18 07:26:32;;;;;;;4.73;1.70;;;24.80;75.80;;;;;;5007533;28;20459;-90
2022/06/18 07:28:58;;;;;;;4.40;1.87;;;25.00;76.30;;;;;;5007332;28;20416;-91
2022/06/18 07:31:29;;;;;;;3.40;1.70;;;25.10;74.70;;;;;;5018716;28;20419;-90
2022/06/18 07:33:56;;;;;;;2.43;1.90;;;25.30;74.00;;;;;;5016460;28;20910;-90
2022/06/18 07:36:22;;;;;;;1.80;1.70;;;25.50;74.00;;;;;;5018392;28;20477;-90
2022/06/18 07:38:50;;;;;;;2.60;1.90;;;25.60;73.50;;;;;;5019071;28;20443;-91
2022/06/18 07:41:21;;;;;;;3.90;2.20;;;25.70;73.10;;;;;;5012683;28;20185;-87
2022/06/18 07:43:57;;;;;;;2.17;1.80;;;25.80;72.90;;;;;;5019078;28;21075;-89
2022/06/18 07:46:24;;;;;;;2.27;1.70;;;25.90;72.40;;;;;;5018708;28;20527;-91
2022/06/18 07:48:49;;;;;;;2.27;2.07;;;26.10;72.20;;;;;;5018354;28;20431;-92
2022/06/18 07:51:15;;;;;;;8.50;2.20;;;26.20;71.90;;;;;;5014861;28;20491;-89
2022/06/18 07:53:40;;;;;;;3.40;1.70;;;26.30;73.10;;;;;;4999554;28;20197;-91
2022/06/18 07:56:07;;;;;;;5.70;1.90;;;26.40;71.90;;;;;;5016980;28;20177;-90
2022/06/18 07:58:33;;;;;;;2.53;1.77;;;26.50;71.40;;;;;;5010795;28;20186;-91
2022/06/18 08:00:59;;;;;;;2.10;1.60;;;26.60;71.10;;;;;;5015497;28;20426;-91
2022/06/18 08:03:25;;;;;;;6.10;2.10;;;26.70;71.40;;;;;;5014610;28;20233;-91
2022/06/18 08:05:52;;;;;;;1.93;1.83;;;26.80;70.80;;;;;;5015305;28;20193;-91
2022/06/18 08:08:17;;;;;;;2.60;1.90;;;26.80;71.20;;;;;;5016793;28;20470;-89
2022/06/18 08:10:48;;;;;;;6.83;1.77;;;26.90;71.20;;;;;;5009133;28;20418;-88
2022/06/18 08:13:13;;;;;;;1.90;1.87;;;27.00;71.20;;;;;;5009654;28;20212;-89
2022/06/18 08:15:39;;;;;;;2.73;1.70;;;27.10;71.70;;;;;;5015640;28;20432;-90
2022/06/18 08:18:05;;;;;;;1.93;1.90;;;27.20;71.00;;;;;;5009194;28;20208;-88
2022/06/18 08:20:32;;;;;;;2.90;2.10;;;27.30;70.70;;;;;;5015595;28;20420;-90
2022/06/18 08:22:59;;;;;;;7.00;1.83;;;27.50;71.50;;;;;;5015170;28;20255;-88
2022/06/18 08:25:31;;;;;;;2.37;1.70;;;27.60;71.30;;;;;;5013779;28;20425;-89
2022/06/18 08:28:02;;;;;;;2.90;1.97;;;27.70;71.30;;;;;;5009590;28;20514;-88
2022/06/18 08:30:28;;;;;;;2.20;1.90;;;27.90;70.50;;;;;;5014616;28;20436;-90
2022/06/18 08:32:53;;;;;;;2.93;1.83;;;28.00;69.80;;;;;;5015189;28;20514;-89
2022/06/18 08:35:21;;;;;;;5.53;2.17;;;28.00;70.50;;;;;;5013083;28;20412;-88
2022/06/18 08:37:49;;;;;;;2.80;1.90;;;28.10;70.10;;;;;;5012769;28;20614;-90
2022/06/18 08:40:35;;;;;;;2.93;1.87;;;28.20;69.20;;;;;;5014989;28;20430;-89
2022/06/18 08:43:24;;;;;;;1.83;1.60;;;28.30;70.30;;;;;;5003419;28;21158;-89
2022/06/18 08:45:57;;;;;;;3.17;1.53;;;28.30;70.10;;;;;;4998211;28;20417;-90
2022/06/18 08:48:41;;;;;;;2.30;1.90;;;28.40;69.30;;;;;;5015472;28;20529;-90
2022/06/18 08:51:31;;;;;;;4.93;1.57;;;28.50;69.30;;;;;;5015072;28;20483;-89
2022/06/18 08:54:00;;;;;;;2.67;1.93;;;28.50;69.90;;;;;;5002162;28;20447;-90
2022/06/18 08:56:42;;;;;;;5.27;1.80;;;28.60;70.10;;;;;;5015727;28;20474;-90
2022/06/18 08:59:23;;;;;;;1.83;1.80;;;28.70;70.60;;;;;;5002713;28;20438;-91
2022/06/18 09:02:09;;;;;;;2.40;1.90;;;28.80;69.80;;;;;;5014817;28;20420;-90
2022/06/18 09:04:35;;;;;;;5.00;2.00;;;28.90;70.20;;;;;;5014387;28;20520;-90
2022/06/18 09:07:36;;;;;;;4.07;2.03;;;29.00;69.20;;;;;;5014510;28;20848;-91
2022/06/18 09:10:25;;;;;;;3.50;2.33;;;29.10;68.70;;;;;;5014418;28;20212;-91
2022/06/18 09:13:35;;;;;;;2.07;1.93;;;29.20;69.70;;;;;;5013906;28;20451;-91
2022/06/18 09:16:45;;;;;;;1.83;1.80;;;29.30;68.90;;;;;;4980306;28;20477;-91
2022/06/18 09:19:25;;;;;;;3.10;1.80;;;29.40;68.90;;;;;;5012573;28;21065;-90
2022/06/18 09:22:14;;;;;;;5.43;2.50;;;29.50;69.30;;;;;;5018764;28;20425;-90
2022/06/18 09:25:38;;;;;;;2.70;1.80;;;29.50;68.20;;;;;;5014292;28;20494;-90
2022/06/18 09:28:07;;;;;;;2.13;2.00;;;29.60;68.80;;;;;;5001944;28;20547;-89
2022/06/18 09:31:43;;;;;;;;;;;;;;;;;;;;;
2022/06/18 09:34:15;;;;;;;4.43;2.00;;;29.80;69.30;;;;;;4988252;28;20419;-90
2022/06/18 09:36:56;;;;;;;4.50;2.63;;;29.90;68.70;;;;;;4988568;28;20436;-90
2022/06/18 09:39:34;;;;;;;2.37;1.70;;;30.00;68.80;;;;;;5012738;28;20436;-91
2022/06/18 09:42:23;;;;;;;2.83;2.00;;;30.20;68.10;;;;;;5013530;28;20451;-89
2022/06/18 09:45:04;;;;;;;2.10;1.87;;;30.30;68.70;;;;;;4996711;28;20447;-89
2022/06/18 09:47:46;;;;;;;2.27;2.03;;;30.40;68.50;;;;;;5014009;28;20542;-90
2022/06/18 09:50:54;;;;;;;2.03;1.80;;;30.50;68.20;;;;;;5013972;28;20470;-90
2022/06/18 09:53:45;;;;;;;4.30;2.27;;;30.60;68.50;;;;;;5013099;28;20432;-89
2022/06/18 09:56:43;;;;;;;4.37;2.70;;;30.60;68.20;;;;;;5012491;28;20512;-89
2022/06/18 09:59:35;;;;;;;3.00;2.30;;;30.70;68.50;;;;;;5007205;28;20483;-88
2022/06/18 10:02:14;;;;;;;2.03;1.80;;;30.70;68.00;;;;;;5005662;28;21011;-88
2022/06/18 10:07:33;;;;;;;7.10;2.40;;;30.90;67.90;;;;;;4995671;28;20451;-89
2022/06/18 10:10:27;;;;;;;2.00;1.90;;;30.90;68.10;;;;;;5020530;28;20427;-89
2022/06/18 10:12:56;;;;;;;4.17;2.53;;;31.10;69.00;;;;;;5010907;28;20971;-89
2022/06/18 10:15:24;;;;;;;5.33;2.40;;;31.20;68.40;;;;;;5011136;28;20915;-89
2022/06/18 10:18:14;;;;;;;10.97;2.90;;;31.30;68.20;;;;;;5013769;28;20416;-88
2022/06/18 10:21:01;;;;;;;5.20;2.50;;;31.30;67.60;;;;;;5003326;28;20463;-89
2022/06/18 10:23:39;;;;;;;2.90;2.60;;;31.40;68.50;;;;;;5007199;28;21011;-89
2022/06/18 10:26:17;;;;;;;2.97;2.77;;;31.50;68.00;;;;;;5012126;28;20938;-89
2022/06/18 10:29:18;;;;;;;4.20;2.40;;;31.60;67.80;;;;;;5002773;28;20965;-89
2022/06/18 10:32:08;;;;;;;5.80;2.50;;;31.80;66.50;;;;;;5029707;28;20432;-89
2022/06/18 10:35:12;;;;;;;4.37;2.70;;;31.70;65.70;;;;;;5010510;28;20471;-88
2022/06/18 10:37:40;;;;;;;4.20;2.57;;;31.70;66.60;;;;;;4978457;28;20442;-89
2022/06/18 10:40:27;;;;;;;4.53;2.43;;;31.60;66.80;;;;;;5000430;28;20432;-88
2022/06/18 10:43:21;;;;;;;2.67;2.47;;;31.70;67.10;;;;;;5001057;28;20594;-89
2022/06/18 10:45:59;;;;;;;8.73;2.40;;;31.80;67.10;;;;;;5013360;28;20432;-90
2022/06/18 10:48:29;;;;;;;7.67;3.00;;;31.80;66.70;;;;;;5015775;28;20866;-89
2022/06/18 10:50:56;;;;;;;5.80;2.37;;;31.80;67.30;;;;;;5012739;28;20475;-88
2022/06/18 10:53:25;;;;;;;7.20;3.00;;;31.70;65.10;;;;;;5001578;28;20448;-90
2022/06/18 10:56:13;;;;;;;5.83;2.47;;;31.60;66.60;;;;;;5010289;28;20426;-88
2022/06/18 10:59:00;;;;;;;4.00;2.40;;;31.70;67.40;;;;;;5010133;28;20448;-89
2022/06/18 11:01:32;;;;;;;5.70;2.97;;;31.70;67.20;;;;;;5008102;28;20415;-90
2022/06/18 11:04:00;;;;;;;4.53;3.13;;;31.80;67.20;;;;;;5001210;28;20495;-89
2022/06/18 11:06:27;;;;;;;4.90;2.87;;;31.90;67.50;;;;;;5013412;28;20518;-89
2022/06/18 11:09:03;;;;;;;6.37;2.73;;;31.90;66.50;;;;;;5020709;28;20419;-90
2022/06/18 11:11:31;;;;;;;7.47;2.73;;;32.00;66.60;;;;;;5001617;28;20423;-90
2022/06/18 11:14:13;;;;;;;5.87;2.33;;;32.10;67.00;;;;;;4996471;28;20514;-89
2022/06/18 11:16:45;;;;;;;3.20;2.50;;;32.20;66.20;;;;;;5014079;28;20432;-88
2022/06/18 11:19:32;;;;;;;9.43;2.70;;;32.20;66.20;;;;;;5014166;28;20938;-88
2022/06/18 11:22:16;;;;;;;3.20;2.23;;;32.40;65.30;;;;;;5012866;28;20436;-89
2022/06/18 11:24:43;;;;;;;4.93;3.00;;;32.40;65.30;;;;;;5014243;28;20432;-90
2022/06/18 11:27:15;;;;;;;3.37;2.40;;;32.50;65.70;;;;;;5016341;28;20514;-89
2022/06/18 11:29:50;;;;;;;5.57;3.00;;;32.60;66.00;;;;;;4996640;28;20465;-89
2022/06/18 11:32:20;;;;;;;8.13;3.03;;;32.70;65.50;;;;;;5008053;28;20858;-91
2022/06/18 11:34:50;;;;;;;8.20;2.60;;;32.70;64.90;;;;;;5016935;28;20427;-89
2022/06/18 11:37:23;;;;;;;3.93;3.07;;;32.80;65.20;;;;;;5018267;28;20454;-90
2022/06/18 11:39:55;;;;;;;5.10;2.70;;;32.80;64.80;;;;;;5011985;28;20463;-90
2022/06/18 11:42:30;;;;;;;9.10;2.70;;;32.80;64.50;;;;;;5017638;28;20454;-91
2022/06/18 11:45:05;;;;;;;4.20;2.67;;;32.90;64.10;;;;;;5015464;28;20482;-89
2022/06/18 11:48:06;;;;;;;9.27;2.60;;;33.00;65.70;;;;;;5011292;28;20463;-90
2022/06/18 11:51:06;;;;;;;7.10;3.03;;;33.00;64.60;;;;;;4956821;29;20478;-90
2022/06/18 11:54:16;;;;;;;3.90;2.03;;;33.10;64.90;;;;;;4955707;28;21012;-90
2022/06/18 11:57:03;;;;;;;5.23;2.60;;;33.30;65.00;;;;;;5003590;28;20523;-90
2022/06/18 12:03:05;;;;;;;3.60;2.27;;;33.50;65.10;;;;;;4999883;28;20478;-91
2022/06/18 12:06:34;;;;;;;7.60;3.53;;;33.60;64.20;;;;;;5007835;28;20416;-94
2022/06/18 12:09:24;;;;;;;4.10;2.57;;;33.70;64.40;;;;;;4933698;28;20512;-91
2022/06/18 12:16:05;;;;;;;6.60;3.13;;;33.50;63.90;;;;;;4947685;29;20569;-89
2022/06/18 12:19:07;;;;;;;6.73;2.80;;;33.50;64.50;;;;;;4950532;28;20972;-91
2022/06/18 12:25:16;;;;;;;9.73;3.33;;;33.70;64.60;;;;;;4930377;29;20431;-90
2022/06/18 12:28:07;;;;;;;5.77;2.43;;;33.70;64.00;;;;;;4933114;29;20472;-91
2022/06/18 12:31:15;;;;;;;8.80;2.60;;;33.80;64.50;;;;;;4914993;29;20435;-90
2022/06/18 12:34:23;;;;;;;6.00;2.87;;;33.90;64.00;;;;;;4909199;29;20467;-90
2022/06/18 12:37:17;;;;;;;7.53;3.10;;;33.90;63.90;;;;;;4970158;28;20789;-90
2022/06/18 12:40:16;;;;;;;9.37;2.87;;;33.90;65.60;;;;;;5008110;28;20489;-90
2022/06/18 12:43:07;;;;;;;7.80;2.93;;;34.00;64.00;;;;;;5000856;28;20447;-90
2022/06/18 12:46:15;;;;;;;6.30;2.80;;;34.00;63.90;;;;;;5015647;28;20519;-89
2022/06/18 12:49:27;;;;;;;4.43;3.00;;;34.10;65.30;;;;;;5017274;28;20440;-89
2022/06/18 12:52:16;;;;;;;7.20;3.37;;;34.30;64.50;;;;;;5013885;28;20445;-89
2022/06/18 12:55:27;;;;;;;8.40;2.70;;;34.40;63.40;;;;;;5006404;28;20421;-92
2022/06/18 12:58:30;;;;;;;;;;;;;;;;;;;;;
2022/06/18 13:01:28;;;;;;;7.70;3.17;;;34.50;63.40;;;;;;4995008;28;21169;-89
2022/06/18 13:04:05;;;;;;;6.70;3.70;;;34.50;63.20;;;;;;4904702;29;20500;-90
2022/06/18 13:06:55;;;;;;;8.70;3.10;;;34.60;63.50;;;;;;4984042;28;20468;-90
2022/06/18 13:09:36;;;;;;;5.70;2.83;;;34.60;63.40;;;;;;4988475;28;20433;-91
2022/06/18 13:12:47;;;;;;;8.40;3.00;;;34.60;63.80;;;;;;4995714;28;20993;-87
2022/06/18 13:15:37;;;;;;;12.77;3.87;;;34.70;63.70;;;;;;4994912;28;20513;-90
2022/06/18 13:21:43;;;;;;;;;;;;;;;;;;;;;
2022/06/18 13:28:26;;;;;;;7.30;3.67;;;35.00;63.10;;;;;;4991707;28;20500;-91
2022/06/18 13:31:33;;;;;;;6.73;3.43;;;35.20;62.90;;;;;;4921778;29;20427;-91
2022/06/18 13:34:05;;;;;;;7.73;3.37;;;35.30;62.40;;;;;;4940858;29;20451;-90
2022/06/18 13:36:45;;;;;;;8.87;3.47;;;35.30;62.90;;;;;;4994916;28;20416;-90
2022/06/18 13:39:17;;;;;;;9.97;2.80;;;35.30;62.50;;;;;;4998436;28;20416;-90
2022/06/18 13:42:26;;;;;;;6.57;3.60;;;35.30;61.80;;;;;;5001077;28;20424;-92
2022/06/18 13:45:35;;;;;;;13.27;3.53;;;35.30;62.00;;;;;;4881914;29;20437;-90
2022/06/18 13:49:07;;;;;;;7.27;3.63;;;35.30;62.60;;;;;;4866114;29;20591;-90
2022/06/18 13:51:33;;;;;;;5.90;3.03;;;35.30;63.30;;;;;;4921569;29;20994;-91
2022/06/18 13:54:25;;;;;;;13.67;3.43;;;35.40;62.80;;;;;;4982203;28;20442;-93
2022/06/18 13:57:16;;;;;;;8.20;3.20;;;35.50;62.40;;;;;;5010256;28;20414;-91
2022/06/18 14:03:26;;;;;;;7.77;3.00;;;35.60;61.70;;;;;;5023007;28;20497;-91
2022/06/18 14:06:06;;;;;;;8.63;2.60;;;35.60;61.90;;;;;;5011277;28;20950;-91
2022/06/18 14:08:57;;;;;;;4.83;2.97;;;35.60;61.70;;;;;;5017295;28;20458;-91
2022/06/18 14:14:46;;;;;;;5.20;2.83;;;35.70;62.80;;;;;;4998015;28;20430;-90
2022/06/18 14:17:23;;;;;;;6.60;2.70;;;35.90;62.80;;;;;;5021244;28;20438;-91
2022/06/18 14:20:16;;;;;;;6.83;3.20;;;36.10;63.00;;;;;;5017344;28;20187;-90
2022/06/18 14:23:04;;;;;;;7.17;3.00;;;36.10;61.60;;;;;;5006754;28;20441;-93
2022/06/18 14:25:55;;;;;;;6.80;3.50;;;36.10;61.20;;;;;;5012481;28;20416;-90
2022/06/18 14:29:06;;;;;;;5.23;2.80;;;36.10;61.90;;;;;;5017585;28;20481;-92
2022/06/18 14:31:57;;;;;;;6.93;3.27;;;36.00;60.20;;;;;;5012566;28;20443;-91
2022/06/18 14:37:55;;;;;;;10.13;3.20;;;36.00;61.00;;;;;;5024549;28;20430;-92
2022/06/18 14:44:15;;;;;;;12.53;3.50;;;36.00;61.10;;;;;;5033723;28;20466;-89
2022/06/18 14:47:30;;;;;;;;;;;;;;;;;;;;;
2022/06/18 14:49:56;;;;;;;4.43;3.40;;;36.10;61.30;;;;;;5029937;28;20467;-89
2022/06/18 14:52:55;;;;;;;8.00;3.00;;;36.30;61.20;;;;;;5015430;28;21005;-89
2022/06/18 14:55:43;;;;;;;13.17;4.93;;;36.40;61.70;;;;;;5012604;28;20431;-89
2022/06/18 14:59:13;;;;;;;9.57;3.20;;;36.50;61.10;;;;;;5015931;28;20438;-90
2022/06/18 15:02:06;;;;;;;8.40;3.27;;;36.40;60.40;;;;;;4948737;28;20462;-90
2022/06/18 15:05:05;;;;;;;12.73;3.90;;;36.40;60.70;;;;;;4940080;28;20437;-91
2022/06/18 15:07:36;;;;;;;11.77;3.73;;;36.40;61.70;;;;;;4929107;28;20473;-91
2022/06/18 15:10:14;;;;;;;12.50;3.40;;;36.50;61.10;;;;;;4958507;28;20535;-89
2022/06/18 15:13:25;;;;;;;12.93;4.07;;;36.50;59.60;;;;;;4989265;28;20459;-91
2022/06/18 15:16:26;;;;;;;10.77;3.30;;;36.40;59.60;;;;;;5034681;28;20407;-90
2022/06/18 15:19:25;;;;;;;16.20;3.33;;;36.50;60.30;;;;;;5038791;28;20397;-90
2022/06/18 15:22:03;;;;;;;12.20;3.23;;;36.50;60.20;;;;;;5010729;28;20510;-92